• Join FlightAware (Why Join?)
  • Login
  • US Flag 
04:50AM EST


 

Airport Tracker/Info


-or-


 

Live Flight TrackerFlight Track Log ✈ N143DE ✈ 25-Jun-2013 ✈ KMIA - KRYY

Flight Track Log - Related Links

Times and Time Zones

All times are in EDT time to prevent confusion due to time zone crossing. See the N143DE flight status page for this flight to view local times or setup timezone preferences in your user account.

Time Position Orientation Groundspeed Altitude Reporting Facility
EDT Latitude Longitude Course Direction KTS MPH feet Rate Location/Type
09:52AM 25.8022 -80.2814 62° Northeast 109 125 800  Level Miami Center
09:53AM 25.8219 -80.2406 62° Northeast 156 180 2,900 1,800 Climbing Miami Center
09:53AM 25.8414 -80.2111 54° Northeast 154 177 4,300 1,620 Climbing Miami Center
09:54AM 25.8794 -80.1867 30° Northeast 176 203 6,000 1,620 Climbing Miami Center
09:56AM 25.9397 -80.2022 347° North 201 231 7,800 1,500 Climbing Miami Center
09:56AM 25.9831 -80.2219 338° Northwest 197 227 9,100 1,260 Climbing Miami Center
09:57AM 26.0328 -80.2511 332° Northwest 208 239 10,300 900 Climbing Miami Center
09:58AM 26.0842 -80.2828 331° Northwest 208 239 11,000 600 Climbing Miami Center
09:59AM 26.1397 -80.3211 328° Northwest 222 255 11,500 480 Climbing Miami Center
10:00AM 26.2014 -80.3556 352° North 236 272 12,000 480 Climbing Miami Center
10:01AM 26.2672 -80.3967 331° Northwest 246 283 12,500 540 Climbing Miami Center
10:02AM 26.3228 -80.4356 328° Northwest 251 289 13,100 480 Climbing Miami Center
10:03AM 26.3928 -80.4747 333° Northwest 251 289 13,500 300 Climbing Miami Center
10:04AM 26.4528 -80.4953 343° North 251 289 13,800 300 Climbing Miami Center
10:05AM 26.5294 -80.5253 341° North 251 289 14,100 300 Climbing Miami Center
10:06AM 26.5892 -80.5528 338° Northwest 256 295 14,500 300 Climbing Miami Center
10:07AM 26.6636 -80.5853 339° North 256 295 14,800 300 Climbing Miami Center
10:08AM 26.7256 -80.6083 342° North 256 295 15,200 420 Climbing Miami Center
10:09AM 26.8003 -80.6317 344° North 251 289 15,700 420 Climbing Miami Center
10:10AM 26.8664 -80.6592 340° North 251 289 16,100 300 Climbing Miami Center
10:11AM 26.9261 -80.6844 339° North 251 289 16,400 300 Climbing Miami Center
10:12AM 26.9922 -80.7100 341° North 251 289 16,800 300 Climbing Miami Center
10:13AM 27.0667 -80.7381 341° North 251 289 17,100 120 Climbing Miami Center
10:14AM 27.1347 -80.7683 338° Northwest 251 289 17,100  Level Miami Center
10:15AM 27.2053 -80.7942 342° North 251 289 17,100  Level Miami Center
10:16AM 27.2672 -80.8194 340° North 256 295 17,100 -60 Level Miami Center
10:17AM 27.3353 -80.8500 338° Northwest 256 295 17,000 -60 Descending Miami Center
10:18AM 27.4075 -80.8781 341° North 262 302 17,000  Level Miami Center
10:19AM 27.4756 -80.9039 341° North 267 307 17,000  Level Miami Center
10:20AM 27.5458 -80.9322 340° North 267 307 17,000  Level Miami Center
10:21AM 27.6139 -80.9581 341° North 267 307 17,000  Level Miami Center
10:22AM 27.6842 -80.9864 340° North 267 307 17,000  Level Miami Center
10:23AM 27.7625 -81.0172 341° North 267 307 17,000  Level Miami Center
10:24AM 27.8328 -81.0458 340° North 267 307 17,000  Level Miami Center
10:25AM 27.9028 -81.0742 340° North 267 307 17,000  Level Miami Center
10:26AM 27.9708 -81.1025 340° North 267 307 17,000  Level Miami Center
10:27AM 28.0408 -81.1311 340° North 267 307 17,000  Level Miami Center
10:29AM 28.1531 -81.1789 339° North 271 312 17,000  Level Jacksonville Center
10:30AM 28.2264 -81.1964 348° North 271 312 17,000  Level Jacksonville Center
10:31AM 28.2972 -81.1975 359° North 259 298 17,000  Level Jacksonville Center
10:32AM 28.3706 -81.2011 358° North 259 298 17,000  Level Jacksonville Center
10:33AM 28.4436 -81.2094 354° North 254 292 17,000  Level Jacksonville Center
10:34AM 28.5147 -81.2153 356° North 254 292 17,000  Level Jacksonville Center
10:35AM 28.5878 -81.2211 356° North 254 292 17,000  Level Jacksonville Center
10:36AM 28.6586 -81.2200 North 254 292 17,000  Level Jacksonville Center
10:37AM 28.7317 -81.2186 North 254 292 17,000  Level Jacksonville Center
10:38AM 28.8047 -81.2222 358° North 254 292 17,000  Level Jacksonville Center
10:39AM 28.8778 -81.2161 North 254 292 17,000  Level Jacksonville Center
10:40AM 28.9486 -81.2175 359° North 254 292 17,000  Level Jacksonville Center
10:41AM 29.0239 -81.2161 North 254 292 17,000  Level Jacksonville Center
10:42AM 29.0969 -81.2219 356° North 254 292 17,000  Level Jacksonville Center
10:43AM 29.1722 -81.2256 358° North 254 292 17,000  Level Jacksonville Center
10:44AM 29.2411 -81.2361 352° North 254 292 17,000  Level Jacksonville Center
10:45AM 29.3122 -81.2517 349° North 254 292 17,000  Level Jacksonville Center
10:46AM 29.3856 -81.2694 348° North 259 298 17,000  Level Jacksonville Center
10:47AM 29.4569 -81.2850 349° North 259 298 17,000  Level Jacksonville Center
10:48AM 29.5300 -81.3028 348° North 259 298 17,000  Level Jacksonville Center
10:49AM 29.6014 -81.3208 348° North 259 298 17,000  Level Jacksonville Center
10:50AM 29.6725 -81.3389 348° North 259 298 17,000  Level Jacksonville Center
10:51AM 29.7436 -81.3592 346° North 259 298 17,000  Level Jacksonville Center
10:52AM 29.8128 -81.3772 347° North 259 298 17,000  Level Jacksonville Center
10:53AM 29.8839 -81.3953 348° North 259 298 17,000  Level Jacksonville Center
10:54AM 29.9572 -81.4133 348° North 259 298 17,000  Level Jacksonville Center
10:55AM 30.0264 -81.4317 347° North 259 298 17,000  Level Jacksonville Center
10:56AM 30.0997 -81.4497 348° North 259 298 17,000  Level Jacksonville Center
10:57AM 30.1708 -81.4678 348° North 259 298 17,000  Level Jacksonville Center
10:58AM 30.2422 -81.4883 346° North 259 298 17,000  Level Jacksonville Center
10:59AM 30.3153 -81.5067 348° North 259 298 17,000  Level Jacksonville Center
11:00AM 30.3783 -81.5442 333° Northwest 259 298 17,000  Level Jacksonville Center
11:01AM 30.4353 -81.5939 323° Northwest 253 291 17,000  Level Jacksonville Center
11:02AM 30.4922 -81.6439 323° Northwest 258 297 17,000  Level Jacksonville Center
11:03AM 30.5489 -81.6961 322° Northwest 258 297 17,000  Level Jacksonville Center
11:04AM 30.6039 -81.7461 322° Northwest 258 297 17,000  Level Jacksonville Center
11:05AM 30.6606 -81.7961 323° Northwest 253 291 17,000  Level Jacksonville Center
11:06AM 30.7236 -81.8533 322° Northwest 253 291 17,000  Level Jacksonville Center
11:07AM 30.7806 -81.9036 323° Northwest 253 291 17,000  Level Jacksonville Center
11:08AM 30.8372 -81.9539 323° Northwest 253 291 17,000  Level Jacksonville Center
11:09AM 30.8919 -82.0042 322° Northwest 253 291 17,000  Level Jacksonville Center
11:10AM 30.9486 -82.0519 324° Northwest 253 291 17,000  Level Jacksonville Center
11:11AM 31.0033 -82.1047 320° Northwest 253 291 17,000  Level Jacksonville Center
11:12AM 31.0578 -82.1531 323° Northwest 253 291 17,000  Level Jacksonville Center
11:13AM 31.1122 -82.2033 322° Northwest 253 291 17,000  Level Jacksonville Center
11:14AM 31.1689 -82.2539 323° Northwest 253 291 17,000 -60 Level Jacksonville Center
11:15AM 31.2236 -82.3047 322° Northwest 253 291 16,900 -300 Descending Jacksonville Center
11:16AM 31.2864 -82.3553 325° Northwest 258 297 16,400 -480 Descending Jacksonville Center
11:17AM 31.3514 -82.3939 333° Northwest 258 297 16,000 -240 Descending Jacksonville Center
11:18AM 31.4181 -82.4106 348° North 258 297 16,000  Level Jacksonville Center
11:19AM 31.4831 -82.4369 341° North 258 297 16,000  Level Jacksonville Center
11:20AM 31.5542 -82.4611 344° North 253 291 16,000  Level Jacksonville Center
11:21AM 31.6231 -82.4875 342° North 253 291 16,000  Level Jacksonville Center
11:22AM 31.6900 -82.5117 343° North 253 291 16,000  Level Jacksonville Center
11:23AM 31.7589 -82.5383 342° North 253 291 16,000  Level Jacksonville Center
11:24AM 31.8278 -82.5600 345° North 248 285 16,000  Level Jacksonville Center
11:25AM 31.8947 -82.5867 341° North 248 285 16,000  Level Jacksonville Center
11:26AM 31.9617 -82.6111 343° North 253 291 16,000  Level Jacksonville Center
11:27AM 32.0283 -82.6353 343° North 253 291 16,000  Level Jacksonville Center
11:28AM 32.0994 -82.6597 344° North 253 291 16,000  Level Jacksonville Center
11:29AM 32.1664 -82.6864 341° North 248 285 16,000  Level Jacksonville Center
11:30AM 32.2333 -82.7083 345° North 248 285 16,000  Level Jacksonville Center
11:33AM 32.4269 -82.7789 343° North 259 298 16,000  Level Atlanta Center
11:34AM 32.4897 -82.8028 342° North 250 288 16,000  Level Atlanta Center
11:35AM 32.5525 -82.8264 342° North 259 298 16,000  Level Atlanta Center
11:36AM 32.6094 -82.8700 327° Northwest 248 285 16,000  Level Atlanta Center
11:37AM 32.6600 -82.9286 316° Northwest 243 280 16,000  Level Atlanta Center
11:38AM 32.7233 -82.9969 318° Northwest 262 302 16,000 -300 Level Atlanta Center
11:39AM 32.7778 -83.0506 320° Northwest 262 302 15,500 -840 Descending Atlanta Center
11:40AM 32.8347 -83.1019 323° Northwest 262 302 14,400 -1,080 Descending Atlanta Center
11:41AM 32.8936 -83.1631 319° Northwest 268 308 13,400 -960 Descending Atlanta Center
11:42AM 32.9525 -83.2194 321° Northwest 268 308 12,500 -900 Descending Atlanta Center
11:43AM 33.0114 -83.2858 317° Northwest 268 308 11,600 -900 Descending Atlanta Center
11:44AM 33.0700 -83.3422 321° Northwest 273 314 10,700 -960 Descending Atlanta Center
11:45AM 33.1267 -83.4064 317° Northwest 273 314 9,700 -900 Descending Atlanta Center
11:46AM 33.1814 -83.4556 323° Northwest 268 308 8,900 -840 Descending Atlanta Center
11:47AM 33.2378 -83.5147 319° Northwest 268 308 8,100 -420 Descending Atlanta Center
11:48AM 33.2903 -83.5692 319° Northwest 256 295 8,100  Level Atlanta Center
11:49AM 33.3386 -83.6211 318° Northwest 246 283 8,100  Level Atlanta Center
11:50AM 33.3931 -83.6706 323° Northwest 241 277 8,100 -120 Level Atlanta Center
11:51AM 33.4536 -83.7053 334° Northwest 236 272 7,900 -660 Descending Atlanta Center
11:53AM 33.6167 -83.7667 343° North 239 275 6,000 -600 Descending Atlanta TRACON
11:54AM 33.6833 -83.8000 337° Northwest 231 266 6,000  Level Atlanta TRACON
11:55AM 33.7500 -83.8167 348° North 223 257 6,000  Level Atlanta TRACON
11:56AM 33.8000 -83.8500 331° Northwest 217 250 6,000  Level Atlanta TRACON
11:57AM 33.8500 -83.8667 345° North 218 251 6,000 -60 Level Atlanta TRACON
11:58AM 33.9167 -83.9000 337° Northwest 217 250 5,900  Descending Atlanta TRACON
11:59AM 33.9333 -83.9667 287° West 208 239 6,000  Climbing Atlanta TRACON
12:00PM 33.9500 -84.0167 292° West 203 234 6,000 -240 Level Atlanta TRACON
12:01PM 33.9667 -84.0833 287° West 211 243 5,600 -540 Descending Atlanta TRACON
12:02PM 33.9833 -84.1500 287° West 202 232 5,000 -900 Descending Atlanta TRACON
12:03PM 34.0167 -84.2167 301° West 203 234 3,900 -600 Descending Atlanta TRACON
12:04PM 34.0167 -84.2667 270° West 183 211 3,800 -300 Descending Atlanta TRACON
12:05PM 34.0167 -84.3333 270° West 169 194 3,300 -420 Descending Atlanta TRACON
12:06PM 34.0167 -84.3833 270° West 164 189 3,000 -180 Descending Atlanta TRACON
12:07PM 34.0167 -84.4333 270° West 149 171 3,000 -120 Level Atlanta TRACON
12:08PM 34.0167 -84.4833 270° West 124 143 2,800 -480 Descending Atlanta TRACON
12:09PM 34.0167 -84.5167 270° West 129 148 2,100 -600 Descending Atlanta TRACON
12:10PM 34.0167 -84.5667 270° West 131 151 1,700 -420 Descending Atlanta TRACON
12:12PM 34.0000 -84.5833 275° West  Level FlightAware Approximate
12:19PM 34.0132 -84.5971 275° West  Level Estimated
12:20PM 34.0132 -84.5971 275° West  Level Estimated
12:21PM 34.0132 -84.5971 275° West  Level Estimated
12:22PM 34.0132 -84.5971 275° West  Level Estimated